Bethesda, MD (20813)

12:00 PM EDT on October 02, 2014 (GMT -0400)
Somerset | Change Station
CLOSE
Current Station
Personal Weather Station
Location: Chevy Chase, MD
Elevation: 330 ft
Nearby Weather Stations

Elev 330 ft 38.97 °N, 77.09 °W | Updated 34 seconds ago

Overcast
Overcast
69.9 °F
Feels Like 69.9 °F
N
0.0
Wind Variable Wind from SE
Gusts 2.0 mph

Today
High -- | Low -- °F
--% Chance of Precip.
Yesterday
High -- | Low -- °F
Precip. -- in
7:05 AM 6:49 PM
First Quarter, 60% visible
Pressure 30.13 in
Visibility 10.0 miles
Clouds Mostly Cloudy 4000 ft
Overcast 4500 ft
Dew Point 61 °F
Humidity 73%
Rainfall 0.00 in
Snow Depth Not available.
UV 2 out of 12
Pollen 3.10 out of 12
Air Quality Not available.
Flu Activity Not available.
METAR KCGS 021550Z AUTO 00000KT 10SM BKN040 OVC045 21/16 A3013 RMK AO1

More Conditions Fewer Conditions

Pressure 30.13 in
Visibility 10.0 miles
Clouds Mostly Cloudy 4000 ft
Overcast 4500 ft
Dew Point 61 °F
Humidity 73%
Rainfall 0.00 in
Snow Depth Not available.
UV 2 out of 12
Pollen 3.10 out of 12
Air Quality Not available.
Flu Activity Not available.
METAR KCGS 021550Z AUTO 00000KT 10SM BKN040 OVC045 21/16 A3013 RMK AO1

More Conditions Fewer Conditions

10-Day Weather Forecast

Almanac

Astronomy

Oct. 02, 2014 Rise Set
Actual Time 7:05 AM EDT 6:49 PM EDT
Civil Twilight 6:38 AM EDT 7:16 PM EDT
Nautical Twilight 6:07 AM EDT 7:46 PM EDT
Astronomical Twilight 5:36 AM EDT 8:18 PM EDT
Moon 2:51 PM EDT 12:22 AM EDT
Length of Visible Light 12h 37m
Length of Day
11h 44m
Tomorrow will be 2m 30s shorter.
First Quarter, 60% of the Moon is Illuminated
Today
First Quarter
Oct 8
Full
Oct 15
Last Quarter
Oct 23
New
Oct 30
First Quarter

Today's Extremes

State Highs State Lows

Community

WunderPhotos

Upload Photos

1,758,286 photos uploaded!

WunderBlogs® & News

Nearby

Snow Depth

Station Depth Elevation
No new snow has been reported.

Earthquake Activity

City Distance Mag. Time & Date
No recent earthquake activity has been reported nearby.
Minimum magnitude displayed is 2.5.

Coastal Water Temperatures

Place Temperature
Washington, DC 71.1 °F
Baltimore, MD 73.0 °F
Solomons Island, MD 73.0 °F

Nearby Weather Stations